createdAt,value
2022-10-14T00:01:22.951Z,6.90
2022-10-14T00:03:51.993Z,6.35
2022-10-14T00:06:23.065Z,6.50
2022-10-14T00:08:51.670Z,6.40
2022-10-14T00:11:21.567Z,7.32
2022-10-14T00:13:50.225Z,6.90
2022-10-14T00:16:22.338Z,6.40
2022-10-14T00:18:50.543Z,6.43
2022-10-14T00:21:18.984Z,7.22
2022-10-14T00:23:47.835Z,7.10
2022-10-14T00:26:18.492Z,6.30
2022-10-14T00:28:47.251Z,7.38
2022-10-14T00:31:16.107Z,6.85
2022-10-14T00:33:47.808Z,7.13
2022-10-14T00:36:18.859Z,6.53
2022-10-14T00:38:47.214Z,7.30
2022-10-14T00:41:18.860Z,8.30
2022-10-14T00:43:57.653Z,10.50
2022-10-14T00:46:27.092Z,9.77
2022-10-14T00:49:05.120Z,8.25
2022-10-14T00:51:33.350Z,8.80
2022-10-14T00:54:01.531Z,8.18
2022-10-14T00:56:31.534Z,8.48
2022-10-14T00:59:01.047Z,9.60
2022-10-14T01:01:29.392Z,8.52
2022-10-14T01:03:57.320Z,7.93
2022-10-14T01:06:40.795Z,7.75
2022-10-14T01:09:19.878Z,7.75
2022-10-14T01:12:23.369Z,7.13
2022-10-14T01:14:54.836Z,7.43
2022-10-14T01:17:36.243Z,7.30
2022-10-14T01:20:30.161Z,8.07
2022-10-14T01:23:17.931Z,7.07
2022-10-14T01:25:56.408Z,7.75
2022-10-14T01:28:33.044Z,7.30
2022-10-14T01:31:05.869Z,7.03
2022-10-14T01:33:38.162Z,7.50
2022-10-14T01:36:11.608Z,7.65
2022-10-14T01:38:42.697Z,8.93
2022-10-14T01:41:15.824Z,8.10
2022-10-14T01:43:47.833Z,9.32
2022-10-14T01:46:20.893Z,10.13
2022-10-14T01:48:53.857Z,9.13
2022-10-14T01:51:25.563Z,8.10
2022-10-14T01:53:58.658Z,8.48
2022-10-14T01:56:29.075Z,8.07
2022-10-14T01:59:00.544Z,8.50
2022-10-14T02:01:30.034Z,7.93
2022-10-14T02:03:58.117Z,8.50
2022-10-14T02:06:34.931Z,8.55
2022-10-14T02:09:13.237Z,9.07
2022-10-14T02:12:02.268Z,9.15
2022-10-14T02:14:39.674Z,9.50
2022-10-14T02:17:13.595Z,8.48
2022-10-14T02:19:48.488Z,9.38
2022-10-14T02:22:26.431Z,10.15
2022-10-14T02:24:59.306Z,9.35
2022-10-14T02:27:29.728Z,9.90
2022-10-14T02:30:01.005Z,9.57
2022-10-14T02:32:31.943Z,9.20
2022-10-14T02:35:03.102Z,9.07
2022-10-14T02:37:32.420Z,9.70
2022-10-14T02:40:06.311Z,8.60
2022-10-14T02:42:34.444Z,8.57
2022-10-14T02:45:06.078Z,8.68
2022-10-14T02:47:35.432Z,8.57
2022-10-14T02:50:03.691Z,8.10
2022-10-14T02:52:31.735Z,7.95
2022-10-14T02:54:59.640Z,8.63
2022-10-14T02:57:27.633Z,8.32
2022-10-14T02:59:58.187Z,7.25
2022-10-14T03:02:26.391Z,7.63
2022-10-14T03:04:56.087Z,7.68
2022-10-14T03:07:24.389Z,7.97
2022-10-14T03:09:53.927Z,7.40
2022-10-14T03:12:25.101Z,7.28
2022-10-14T03:14:55.048Z,7.38
2022-10-14T03:17:25.183Z,7.10
2022-10-14T03:19:55.494Z,7.80
2022-10-14T03:22:26.743Z,7.38
2022-10-14T03:24:56.104Z,6.85
2022-10-14T03:27:41.320Z,7.38
2022-10-14T03:30:13.476Z,6.45
2022-10-14T03:32:54.893Z,6.20
2022-10-14T03:35:47.193Z,6.93
2022-10-14T03:38:18.976Z,7.22
2022-10-14T03:40:48.725Z,6.18
2022-10-14T03:43:17.848Z,6.30
2022-10-14T03:45:52.689Z,5.50
2022-10-14T03:48:23.265Z,5.85
2022-10-14T03:50:52.571Z,6.13
2022-10-14T03:53:21.361Z,6.15
2022-10-14T03:55:50.989Z,6.15
2022-10-14T03:58:19.082Z,5.82
2022-10-14T04:00:56.917Z,6.40
2022-10-14T04:03:38.357Z,5.75
2022-10-14T04:06:07.927Z,5.70
2022-10-14T04:08:37.403Z,6.45
2022-10-14T04:11:19.164Z,6.70
2022-10-14T04:13:49.210Z,6.55
2022-10-14T04:16:17.306Z,6.95
2022-10-14T04:18:59.857Z,7.28
2022-10-14T04:21:29.285Z,7.30
2022-10-14T04:23:58.933Z,6.88
2022-10-14T04:26:39.752Z,7.90
2022-10-14T04:29:14.082Z,7.03
2022-10-14T04:31:54.509Z,7.15
2022-10-14T04:34:23.672Z,7.25
2022-10-14T04:36:55.025Z,7.32
2022-10-14T04:39:39.963Z,6.55
2022-10-14T04:42:08.059Z,7.00
2022-10-14T04:44:36.550Z,7.13
2022-10-14T04:47:05.848Z,7.32
2022-10-14T04:49:34.020Z,6.55
2022-10-14T04:52:12.899Z,6.80
2022-10-14T04:54:47.555Z,7.15
2022-10-14T04:57:15.556Z,7.30
2022-10-14T04:59:48.281Z,6.75
2022-10-14T05:02:34.699Z,6.63
2022-10-14T05:05:03.543Z,6.40
2022-10-14T05:07:37.430Z,6.40
2022-10-14T05:10:21.338Z,7.18
2022-10-14T05:12:50.112Z,7.13
2022-10-14T05:15:19.672Z,6.53
2022-10-14T05:17:59.240Z,7.00
2022-10-14T05:20:41.464Z,6.97
2022-10-14T05:23:10.856Z,7.32
2022-10-14T05:25:38.880Z,7.55
2022-10-14T05:28:06.979Z,6.85
2022-10-14T05:30:36.106Z,6.75
2022-10-14T05:33:08.219Z,7.55
2022-10-14T05:35:58.139Z,6.97
2022-10-14T05:38:29.009Z,6.78
2022-10-14T05:40:58.838Z,7.13
2022-10-14T05:43:32.066Z,6.93
2022-10-14T05:46:02.299Z,7.50
2022-10-14T05:48:34.521Z,7.68
2022-10-14T05:51:03.518Z,6.90
2022-10-14T05:53:35.629Z,7.85
2022-10-14T05:56:09.879Z,8.40
2022-10-14T05:58:40.193Z,7.40
2022-10-14T06:01:11.600Z,7.63
2022-10-14T06:03:42.405Z,6.88
2022-10-14T06:06:13.350Z,7.07
2022-10-14T06:08:43.088Z,6.78
2022-10-14T06:11:11.003Z,7.25
2022-10-14T06:13:39.741Z,6.93
2022-10-14T06:16:11.124Z,7.07
2022-10-14T06:18:39.532Z,6.60
2022-10-14T06:21:08.504Z,6.78
2022-10-14T06:23:36.719Z,6.65
2022-10-14T06:26:09.829Z,6.32
2022-10-14T06:28:38.473Z,6.60
2022-10-14T06:31:06.874Z,6.50
2022-10-14T06:33:35.260Z,6.50
2022-10-14T06:36:04.042Z,6.55
2022-10-14T06:38:32.010Z,5.95
2022-10-14T06:41:00.192Z,6.57
2022-10-14T06:43:30.131Z,6.70
2022-10-14T06:45:59.550Z,8.40
2022-10-14T06:48:27.628Z,6.63
2022-10-14T06:50:55.611Z,7.57
2022-10-14T06:53:23.568Z,7.85
2022-10-14T06:55:57.803Z,7.68
2022-10-14T06:58:25.760Z,7.65
2022-10-14T07:00:55.255Z,6.40
2022-10-14T07:03:23.555Z,5.78
2022-10-14T07:05:51.861Z,6.32
2022-10-14T07:08:19.856Z,6.38
2022-10-14T07:10:48.212Z,5.65
2022-10-14T07:13:16.279Z,5.63
2022-10-14T07:15:44.244Z,6.72
2022-10-14T07:18:14.103Z,6.28
2022-10-14T07:20:42.019Z,6.53
2022-10-14T07:23:09.942Z,6.65
2022-10-14T07:25:38.002Z,5.97
2022-10-14T07:28:06.377Z,6.80
2022-10-14T07:30:34.440Z,6.68
2022-10-14T07:33:02.774Z,6.60
2022-10-14T07:35:32.347Z,6.63
2022-10-14T07:38:00.980Z,6.47
2022-10-14T07:40:29.549Z,6.75
2022-10-14T07:42:57.758Z,7.75
2022-10-14T07:45:25.735Z,8.93
2022-10-14T07:47:53.834Z,9.75
2022-10-14T07:50:21.790Z,9.20
2022-10-14T07:52:51.291Z,9.65
2022-10-14T07:55:19.284Z,9.05
2022-10-14T07:57:47.200Z,10.25
2022-10-14T08:00:15.565Z,10.48
2022-10-14T08:02:43.575Z,9.45
2022-10-14T08:08:01.442Z,9.50
2022-10-14T08:10:29.575Z,8.48
2022-10-14T08:12:58.054Z,7.88
2022-10-14T08:15:28.537Z,9.10
2022-10-14T08:17:56.565Z,10.88
2022-10-14T08:20:24.507Z,11.43
2022-10-14T08:22:52.436Z,11.85
2022-10-14T08:25:22.457Z,13.55
2022-10-14T08:27:51.250Z,13.50
2022-10-14T08:30:19.522Z,12.40
2022-10-14T08:32:47.612Z,12.07
2022-10-14T08:35:16.081Z,10.40
2022-10-14T08:37:44.124Z,10.10
2022-10-14T08:40:18.218Z,9.70
2022-10-14T08:42:55.364Z,5.38
2022-10-14T08:45:30.393Z,4.78
2022-10-14T08:48:00.473Z,4.40
2022-10-14T08:50:34.469Z,4.90
2022-10-14T08:53:08.423Z,4.15
2022-10-14T08:55:39.884Z,4.00
2022-10-14T08:58:15.804Z,4.28
2022-10-14T09:00:46.901Z,5.00
2022-10-14T09:03:22.120Z,5.25
2022-10-14T09:05:58.743Z,5.32
2022-10-14T09:08:31.864Z,6.28
2022-10-14T09:11:00.281Z,6.82
2022-10-14T09:13:36.103Z,6.20
2022-10-14T09:16:09.324Z,6.07
2022-10-14T09:18:41.848Z,6.15
2022-10-14T09:21:40.424Z,6.22
2022-10-14T09:24:16.676Z,6.60
2022-10-14T09:26:46.371Z,6.53
2022-10-14T09:29:25.030Z,6.35
2022-10-14T09:31:53.308Z,6.78
2022-10-14T09:34:26.732Z,6.38
2022-10-14T09:36:54.857Z,6.28
2022-10-14T09:39:22.905Z,6.32
2022-10-14T09:41:54.275Z,6.35
2022-10-14T09:44:25.913Z,6.22
2022-10-14T09:46:57.330Z,7.43
2022-10-14T09:49:35.913Z,6.38
2022-10-14T09:52:04.167Z,7.43
2022-10-14T09:54:33.503Z,6.93
2022-10-14T09:57:05.118Z,7.07
2022-10-14T09:59:35.401Z,6.82
2022-10-14T10:02:05.548Z,7.57
2022-10-14T10:04:37.449Z,6.97
2022-10-14T10:07:07.704Z,7.78
2022-10-14T10:09:35.875Z,7.43
2022-10-14T10:12:24.489Z,6.38
2022-10-14T10:15:03.693Z,7.20
2022-10-14T10:17:32.753Z,7.07
2022-10-14T10:20:20.524Z,6.43
2022-10-14T10:22:49.050Z,6.25
2022-10-14T10:25:27.250Z,5.72
2022-10-14T10:27:59.481Z,4.70
2022-10-14T10:30:32.359Z,5.30
2022-10-14T10:33:17.067Z,4.30
2022-10-14T10:36:05.471Z,3.38
2022-10-14T10:38:40.410Z,3.42
2022-10-14T10:41:23.634Z,3.20
2022-10-14T10:44:18.487Z,2.33
2022-10-14T10:47:05.822Z,3.25
2022-10-14T10:52:42.504Z,3.88
2022-10-14T10:55:19.135Z,3.63
2022-10-14T10:58:02.621Z,3.78
2022-10-14T11:00:42.643Z,3.50
2022-10-14T11:03:30.877Z,3.25
2022-10-14T11:06:07.484Z,3.22
2022-10-14T11:09:06.010Z,3.65
2022-10-14T11:12:00.025Z,3.15
2022-10-14T11:14:48.559Z,3.25
2022-10-14T11:17:26.883Z,3.60
2022-10-14T11:20:05.464Z,2.95
2022-10-14T11:22:55.963Z,3.30
2022-10-14T11:25:34.688Z,3.20
2022-10-14T11:28:11.266Z,3.13
2022-10-14T11:30:47.752Z,2.53
2022-10-14T11:33:29.471Z,3.17
2022-10-14T11:36:08.164Z,3.55
2022-10-14T11:38:55.452Z,2.85
2022-10-14T11:41:35.487Z,3.03
2022-10-14T11:44:11.224Z,3.58
2022-10-14T11:46:42.990Z,3.50
2022-10-14T11:49:20.150Z,3.60
2022-10-14T11:51:54.090Z,3.50
2022-10-14T11:54:29.523Z,3.90
2022-10-14T11:57:02.561Z,4.78
2022-10-14T11:59:40.087Z,4.60
2022-10-14T12:02:34.764Z,4.68
2022-10-14T12:05:11.649Z,4.00
2022-10-14T12:07:46.199Z,4.05
2022-10-14T12:10:23.407Z,3.97
2022-10-14T12:12:52.890Z,4.35
2022-10-14T12:15:24.951Z,4.20
2022-10-14T12:17:57.040Z,3.88
2022-10-14T12:20:33.538Z,4.80
2022-10-14T12:23:04.381Z,4.20
2022-10-14T12:25:40.067Z,4.10
2022-10-14T12:28:09.772Z,4.18
2022-10-14T12:30:39.656Z,4.95
2022-10-14T12:33:09.578Z,4.68
2022-10-14T12:35:53.328Z,4.60
2022-10-14T12:38:23.151Z,4.97
2022-10-14T12:40:51.120Z,4.90
2022-10-14T12:43:25.667Z,4.95
2022-10-14T12:46:14.449Z,4.80
2022-10-14T12:48:50.352Z,4.95
2022-10-14T12:51:21.016Z,4.88
2022-10-14T12:53:55.624Z,5.07
2022-10-14T12:56:36.322Z,5.53
2022-10-14T12:59:07.568Z,6.03
2022-10-14T13:01:38.893Z,5.60
2022-10-14T13:04:19.916Z,6.30
2022-10-14T13:07:46.590Z,6.07
2022-10-14T13:10:47.324Z,5.80
2022-10-14T13:13:52.519Z,6.50
2022-10-14T13:17:06.469Z,5.53
2022-10-14T13:19:45.437Z,5.47
2022-10-14T13:22:45.943Z,6.38
2022-10-14T13:25:17.708Z,6.38
2022-10-14T13:27:56.585Z,6.13
2022-10-14T13:30:33.982Z,5.97
2022-10-14T13:33:11.979Z,5.90
2022-10-14T13:35:53.545Z,7.38
2022-10-14T13:38:24.841Z,12.30
2022-10-14T13:40:55.356Z,7.97
2022-10-14T13:43:29.165Z,6.50
2022-10-14T13:46:07.980Z,5.90
2022-10-14T13:48:40.231Z,5.10
2022-10-14T13:51:36.671Z,5.10
2022-10-14T13:54:17.852Z,26.67
2022-10-14T13:57:12.617Z,9.07
2022-10-14T14:02:42.875Z,4.30
2022-10-14T14:05:17.008Z,4.53
2022-10-14T14:10:39.177Z,4.75
2022-10-14T14:13:14.389Z,5.40
2022-10-14T14:15:43.850Z,4.18
2022-10-14T14:18:33.942Z,4.75
2022-10-14T14:21:13.989Z,4.63
2022-10-14T14:23:51.063Z,5.13
2022-10-14T14:26:20.160Z,5.22
2022-10-14T14:28:49.455Z,4.20
2022-10-14T14:31:23.052Z,5.05
2022-10-14T14:33:51.148Z,4.93
2022-10-14T14:36:27.846Z,4.63
2022-10-14T14:39:03.354Z,4.00
2022-10-14T14:41:33.236Z,4.75
2022-10-14T14:44:25.689Z,4.53
2022-10-14T14:46:59.311Z,4.55
2022-10-14T14:49:30.587Z,4.20
2022-10-14T14:52:00.599Z,4.47
2022-10-14T14:54:29.899Z,3.63
2022-10-14T14:57:05.013Z,3.97
2022-10-14T14:59:36.764Z,3.83
2022-10-14T15:02:14.500Z,3.45
2022-10-14T15:04:43.819Z,4.00
2022-10-14T15:07:21.067Z,3.90
2022-10-14T15:09:52.693Z,4.20
2022-10-14T15:12:24.198Z,4.75
2022-10-14T15:14:53.869Z,4.95
2022-10-14T15:17:32.174Z,4.35
2022-10-14T15:20:21.781Z,5.13
2022-10-14T15:22:51.798Z,4.53
2022-10-14T15:25:30.669Z,4.28
2022-10-14T15:27:59.871Z,4.22
2022-10-14T15:30:34.697Z,4.80
2022-10-14T15:33:13.863Z,4.32
2022-10-14T15:35:42.291Z,4.68
2022-10-14T15:38:16.147Z,5.47
2022-10-14T15:40:45.203Z,6.03
2022-10-14T15:43:17.615Z,5.43
2022-10-14T15:46:10.660Z,6.18
2022-10-14T15:48:40.498Z,5.43
2022-10-14T15:51:08.470Z,5.78
2022-10-14T15:53:36.567Z,6.07
2022-10-14T15:56:04.502Z,5.47
2022-10-14T15:58:33.775Z,6.60
2022-10-14T16:01:02.305Z,5.90
2022-10-14T16:03:34.571Z,6.07
2022-10-14T16:06:05.635Z,5.25
2022-10-14T16:08:34.117Z,5.80
2022-10-14T16:11:04.338Z,6.05
2022-10-14T16:13:32.281Z,5.13
2022-10-14T16:16:02.892Z,6.20
2022-10-14T16:18:30.795Z,5.95
2022-10-14T16:20:58.826Z,5.43
2022-10-14T16:23:32.511Z,5.32
2022-10-14T16:26:01.985Z,5.60
2022-10-14T16:28:30.003Z,4.95
2022-10-14T16:30:59.971Z,4.53
2022-10-14T16:33:28.031Z,4.70
2022-10-14T16:35:57.596Z,5.10
2022-10-14T16:38:25.641Z,4.38
2022-10-14T16:40:59.060Z,3.88
2022-10-14T16:43:27.658Z,3.50
2022-10-14T16:45:59.100Z,3.92
2022-10-14T16:48:27.984Z,3.17
2022-10-14T16:50:56.585Z,3.08
2022-10-14T16:53:45.186Z,3.72
2022-10-14T16:56:34.349Z,3.50
2022-10-14T16:59:02.933Z,3.35
2022-10-14T17:01:30.998Z,3.33
2022-10-14T17:03:59.446Z,3.70
2022-10-14T17:06:27.983Z,3.60
2022-10-14T17:08:55.903Z,3.10
2022-10-14T17:11:27.378Z,3.72
2022-10-14T17:13:57.492Z,3.30
2022-10-14T17:16:27.100Z,3.25
2022-10-14T17:18:55.128Z,3.25
2022-10-14T17:21:23.076Z,3.63
2022-10-14T17:23:51.284Z,3.50
2022-10-14T17:26:20.762Z,3.00
2022-10-14T17:28:50.654Z,3.72
2022-10-14T17:31:22.630Z,3.90
2022-10-14T17:33:51.048Z,4.15
2022-10-14T17:36:21.084Z,3.47
2022-10-14T17:38:50.751Z,3.42
2022-10-14T17:41:19.582Z,3.20
2022-10-14T17:43:49.549Z,3.55
2022-10-14T17:46:21.333Z,3.33
2022-10-14T17:48:51.782Z,3.08
2022-10-14T17:51:22.919Z,3.03
2022-10-14T17:53:53.943Z,3.22
2022-10-14T17:56:22.260Z,3.13
2022-10-14T17:58:53.293Z,2.97
2022-10-14T18:01:36.811Z,2.78
2022-10-14T18:04:11.098Z,2.63
2022-10-14T18:06:39.134Z,2.80
2022-10-14T18:09:09.648Z,2.83
2022-10-14T18:12:06.949Z,3.10
2022-10-14T18:14:29.216Z,2.63
2022-10-14T18:16:59.415Z,2.42
2022-10-14T18:19:27.845Z,2.92
2022-10-14T18:21:55.822Z,2.70
2022-10-14T18:24:23.850Z,2.67
2022-10-14T18:26:52.165Z,2.88
2022-10-14T18:29:20.168Z,3.45
2022-10-14T18:34:25.496Z,3.78
2022-10-14T18:36:53.456Z,3.38
2022-10-14T18:39:21.587Z,3.17
2022-10-14T18:41:49.558Z,2.30
2022-10-14T18:44:17.885Z,2.10
2022-10-14T18:46:47.701Z,3.72
2022-10-14T18:49:15.628Z,2.20
2022-10-14T18:51:45.065Z,2.20
2022-10-14T18:54:15.906Z,1.50
2022-10-14T18:56:44.773Z,1.33
2022-10-14T18:59:14.677Z,2.28
2022-10-14T19:01:43.074Z,1.90
2022-10-14T19:04:13.460Z,1.83
2022-10-14T19:06:42.726Z,1.90
2022-10-14T19:09:13.797Z,2.92
2022-10-14T19:11:42.739Z,1.70
2022-10-14T19:14:10.952Z,1.95
2022-10-14T19:16:39.946Z,2.67
2022-10-14T19:19:11.688Z,2.15
2022-10-14T19:21:40.072Z,1.70
2022-10-14T19:24:08.855Z,2.15
2022-10-14T19:26:40.530Z,2.10
2022-10-14T19:29:11.754Z,2.03
2022-10-14T19:31:41.007Z,1.90
2022-10-14T19:34:13.926Z,1.75
2022-10-14T19:36:42.584Z,1.80
2022-10-14T19:39:14.535Z,2.03
2022-10-14T19:41:46.440Z,2.03
2022-10-14T19:44:15.538Z,1.90
2022-10-14T19:46:43.752Z,1.83
2022-10-14T19:49:13.725Z,1.95
2022-10-14T19:51:41.852Z,1.55
2022-10-14T19:54:12.010Z,1.30
2022-10-14T19:56:39.986Z,1.58
2022-10-14T19:59:10.467Z,1.48
2022-10-14T20:01:38.540Z,1.00
2022-10-14T20:04:07.093Z,1.17
2022-10-14T20:06:37.814Z,1.20
2022-10-14T20:09:06.117Z,1.23
2022-10-14T20:11:34.329Z,1.60
2022-10-14T20:14:02.335Z,1.40
2022-10-14T20:16:31.757Z,1.30
2022-10-14T20:18:59.710Z,1.40
2022-10-14T20:21:30.063Z,1.33
2022-10-14T20:23:59.371Z,1.10
2022-10-14T20:26:27.559Z,1.38
2022-10-14T20:28:55.979Z,1.27
2022-10-14T20:31:25.554Z,1.60
2022-10-14T20:33:56.251Z,1.20
2022-10-14T20:36:24.711Z,1.48
2022-10-14T20:38:52.966Z,1.42
2022-10-14T20:41:23.039Z,1.20
2022-10-14T20:43:51.417Z,1.10
2022-10-14T20:46:20.154Z,1.27
2022-10-14T20:48:48.050Z,1.30
2022-10-14T20:51:19.642Z,1.13
2022-10-14T20:53:47.547Z,1.10
2022-10-14T20:56:15.957Z,1.10
2022-10-14T20:58:44.056Z,1.10
2022-10-14T21:01:13.777Z,1.13
2022-10-14T21:03:43.232Z,1.02
2022-10-14T21:06:15.159Z,0.80
2022-10-14T21:08:45.073Z,0.95
2022-10-14T21:11:15.531Z,1.00
2022-10-14T21:13:45.947Z,0.98
2022-10-14T21:16:15.388Z,1.00
2022-10-14T21:18:46.536Z,1.10
2022-10-14T21:21:16.759Z,0.73
2022-10-14T21:23:46.571Z,1.05
2022-10-14T21:26:14.837Z,0.90
2022-10-14T21:28:43.180Z,1.10
2022-10-14T21:31:17.399Z,0.80
2022-10-14T21:33:47.549Z,0.95
2022-10-14T21:36:17.277Z,0.85
2022-10-14T21:38:46.624Z,1.00
2022-10-14T21:41:14.631Z,0.90
2022-10-14T21:43:42.937Z,1.55
2022-10-14T21:46:13.185Z,0.80
2022-10-14T21:48:42.000Z,1.00
2022-10-14T21:51:12.279Z,0.93
2022-10-14T21:53:41.704Z,0.90
2022-10-14T21:56:12.884Z,1.13
2022-10-14T21:58:41.453Z,1.08
2022-10-14T22:01:12.851Z,0.90
2022-10-14T22:03:41.639Z,0.95
2022-10-14T22:06:12.003Z,1.00
2022-10-14T22:08:42.180Z,1.30
2022-10-14T22:11:18.451Z,1.67
2022-10-14T22:13:46.881Z,1.42
2022-10-14T22:16:16.946Z,1.20
2022-10-14T22:18:46.875Z,1.27
2022-10-14T22:21:17.203Z,1.50
2022-10-14T22:23:45.887Z,1.25
2022-10-14T22:26:15.739Z,1.33
2022-10-14T22:28:45.427Z,0.80
2022-10-14T22:31:16.245Z,1.10
2022-10-14T22:33:44.302Z,0.80
2022-10-14T22:36:14.391Z,0.98
2022-10-14T22:38:45.372Z,1.40
2022-10-14T22:41:15.312Z,1.70
2022-10-14T22:43:48.461Z,1.48
2022-10-14T22:46:19.633Z,1.27
2022-10-14T22:48:48.408Z,1.00
2022-10-14T22:51:18.476Z,0.70
2022-10-14T22:53:47.537Z,0.80
2022-10-14T22:56:18.099Z,0.90
2022-10-14T22:58:47.409Z,0.90
2022-10-14T23:01:17.537Z,0.90
2022-10-14T23:03:45.524Z,0.95
2022-10-14T23:06:14.703Z,0.93
2022-10-14T23:08:43.228Z,1.02
2022-10-14T23:11:13.811Z,1.33
2022-10-14T23:13:42.084Z,1.10
2022-10-14T23:16:14.315Z,1.05
2022-10-14T23:21:17.454Z,0.90
2022-10-14T23:23:46.694Z,0.90
2022-10-14T23:26:16.143Z,0.95
2022-10-14T23:28:44.239Z,0.88
2022-10-14T23:31:15.317Z,0.90
2022-10-14T23:33:43.421Z,0.93
2022-10-14T23:36:13.407Z,1.08
2022-10-14T23:38:41.675Z,0.98
2022-10-14T23:41:11.138Z,1.20
2022-10-14T23:43:39.359Z,1.20
2022-10-14T23:46:07.943Z,1.45
2022-10-14T23:48:38.003Z,1.33
2022-10-14T23:51:06.199Z,1.55
2022-10-14T23:53:35.004Z,1.50
2022-10-14T23:56:03.143Z,1.00
2022-10-14T23:58:31.075Z,1.58
